createdAt,value
2023-05-02T00:01:26.154Z,4.22
2023-05-02T00:03:53.067Z,4.10
2023-05-02T00:06:19.855Z,4.35
2023-05-02T00:08:46.619Z,4.68
2023-05-02T00:11:14.456Z,5.65
2023-05-02T00:13:41.525Z,4.78
2023-05-02T00:16:08.301Z,4.60
2023-05-02T00:18:34.972Z,5.57
2023-05-02T00:21:01.690Z,4.47
2023-05-02T00:23:28.986Z,4.90
2023-05-02T00:25:55.677Z,5.07
2023-05-02T00:28:22.389Z,5.53
2023-05-02T00:30:49.214Z,4.10
2023-05-02T00:33:16.120Z,3.83
2023-05-02T00:35:43.064Z,3.58
2023-05-02T00:38:09.831Z,3.60
2023-05-02T00:40:48.048Z,3.57
2023-05-02T00:43:15.801Z,5.47
2023-05-02T00:45:44.028Z,5.30
2023-05-02T00:48:12.071Z,5.53
2023-05-02T00:50:41.186Z,5.43
2023-05-02T00:53:09.462Z,5.60
2023-05-02T00:55:36.934Z,5.10
2023-05-02T00:58:08.999Z,4.75
2023-05-02T01:00:59.922Z,4.32
2023-05-02T01:03:49.204Z,4.90
2023-05-02T01:06:32.129Z,4.70
2023-05-02T01:09:07.675Z,4.88
2023-05-02T01:11:37.892Z,5.03
2023-05-02T01:14:09.061Z,5.13
2023-05-02T01:16:42.333Z,5.05
2023-05-02T01:19:40.945Z,5.13
2023-05-02T01:22:14.537Z,4.93
2023-05-02T01:25:16.753Z,4.40
2023-05-02T01:28:33.764Z,7.57
2023-05-02T01:31:03.453Z,7.25
2023-05-02T01:33:31.791Z,4.83
2023-05-02T01:36:01.460Z,5.65
2023-05-02T01:38:29.724Z,5.20
2023-05-02T01:40:58.891Z,4.93
2023-05-02T01:43:26.901Z,5.10
2023-05-02T01:45:56.173Z,7.17
2023-05-02T01:48:24.986Z,7.28
2023-05-02T01:50:52.305Z,6.10
2023-05-02T01:53:22.418Z,5.72
2023-05-02T01:55:50.098Z,5.60
2023-05-02T01:58:18.728Z,5.23
2023-05-02T02:00:46.558Z,5.78
2023-05-02T02:03:15.128Z,4.30
2023-05-02T02:05:42.994Z,6.13
2023-05-02T02:08:09.912Z,6.97
2023-05-02T02:10:41.174Z,6.10
2023-05-02T02:13:17.109Z,6.15
2023-05-02T02:15:49.372Z,5.60
2023-05-02T02:18:21.851Z,7.50
2023-05-02T02:20:50.265Z,6.38
2023-05-02T02:23:19.856Z,4.93
2023-05-02T02:25:47.170Z,9.43
2023-05-02T02:28:13.893Z,6.47
2023-05-02T02:30:40.810Z,4.90
2023-05-02T02:33:07.572Z,3.92
2023-05-02T02:35:40.830Z,3.50
2023-05-02T02:38:42.426Z,3.80
2023-05-02T02:41:21.490Z,5.55
2023-05-02T02:44:01.400Z,6.25
2023-05-02T02:46:53.873Z,6.70
2023-05-02T02:49:49.863Z,5.47
2023-05-02T02:52:33.942Z,4.78
2023-05-02T02:55:29.840Z,4.75
2023-05-02T02:58:07.604Z,4.82
2023-05-02T03:00:35.732Z,5.43
2023-05-02T03:03:02.524Z,6.50
2023-05-02T03:05:30.908Z,7.38
2023-05-02T03:08:00.372Z,6.18
2023-05-02T03:10:27.138Z,6.75
2023-05-02T03:12:56.776Z,7.40
2023-05-02T03:15:37.126Z,7.20
2023-05-02T03:18:03.926Z,6.30
2023-05-02T03:20:30.658Z,6.03
2023-05-02T03:22:57.322Z,4.85
2023-05-02T03:25:24.126Z,4.90
2023-05-02T03:27:50.852Z,5.07
2023-05-02T03:30:17.659Z,4.57
2023-05-02T03:32:44.424Z,4.50
2023-05-02T03:35:11.618Z,4.97
2023-05-02T03:37:38.315Z,4.88
2023-05-02T03:40:05.631Z,5.23
2023-05-02T03:42:41.523Z,4.93
2023-05-02T03:45:09.081Z,5.20
2023-05-02T03:47:36.020Z,5.18
2023-05-02T03:50:03.453Z,4.40
2023-05-02T03:52:30.220Z,4.43
2023-05-02T03:54:57.554Z,4.70
2023-05-02T03:57:24.340Z,4.07
2023-05-02T03:59:50.995Z,3.95
2023-05-02T04:02:17.773Z,3.85
2023-05-02T04:04:44.640Z,4.80
2023-05-02T04:07:18.096Z,4.50
2023-05-02T04:09:45.642Z,3.80
2023-05-02T04:12:12.400Z,4.15
2023-05-02T04:14:39.118Z,3.95
2023-05-02T04:17:06.905Z,4.37
2023-05-02T04:19:34.840Z,3.70
2023-05-02T04:22:02.946Z,3.80
2023-05-02T04:24:29.722Z,3.47
2023-05-02T04:26:56.413Z,3.40
2023-05-02T04:29:23.197Z,3.70
2023-05-02T04:31:50.933Z,3.30
2023-05-02T04:34:17.740Z,3.50
2023-05-02T04:36:47.319Z,3.58
2023-05-02T04:39:14.184Z,3.53
2023-05-02T04:41:41.684Z,3.90
2023-05-02T04:44:08.438Z,3.05
2023-05-02T04:46:35.189Z,3.60
2023-05-02T04:49:02.256Z,3.45
2023-05-02T04:51:29.260Z,3.50
2023-05-02T04:53:55.987Z,3.47
2023-05-02T04:56:22.921Z,3.40
2023-05-02T04:58:49.678Z,3.35
2023-05-02T05:01:16.606Z,3.80
2023-05-02T05:03:43.767Z,3.45
2023-05-02T05:06:10.670Z,4.00
2023-05-02T05:08:37.432Z,3.78
2023-05-02T05:11:05.323Z,3.97
2023-05-02T05:13:32.144Z,3.38
2023-05-02T05:15:59.255Z,3.97
2023-05-02T05:18:26.215Z,3.83
2023-05-02T05:20:53.178Z,3.78
2023-05-02T05:23:19.987Z,3.88
2023-05-02T05:25:46.681Z,4.07
2023-05-02T05:28:13.607Z,3.80
2023-05-02T05:30:40.345Z,4.20
2023-05-02T05:33:07.117Z,3.60
2023-05-02T05:35:33.927Z,4.35
2023-05-02T05:38:00.744Z,4.88
2023-05-02T05:40:27.765Z,4.18
2023-05-02T05:42:54.478Z,3.57
2023-05-02T05:45:21.261Z,4.00
2023-05-02T05:47:48.059Z,5.25
2023-05-02T05:50:14.813Z,4.25
2023-05-02T05:52:41.548Z,3.85
2023-05-02T05:55:08.713Z,4.50
2023-05-02T05:57:35.478Z,4.72
2023-05-02T06:00:02.634Z,5.03
2023-05-02T06:02:29.717Z,4.72
2023-05-02T06:04:56.540Z,4.60
2023-05-02T06:07:23.401Z,4.17
2023-05-02T06:09:50.104Z,4.65
2023-05-02T06:12:16.829Z,4.45
2023-05-02T06:14:43.624Z,4.22
2023-05-02T06:17:10.434Z,3.92
2023-05-02T06:19:37.239Z,3.70
2023-05-02T06:22:04.182Z,4.05
2023-05-02T06:24:31.176Z,4.95
2023-05-02T06:26:58.890Z,4.13
2023-05-02T06:29:25.640Z,4.15
2023-05-02T06:31:55.909Z,3.73
2023-05-02T06:34:23.124Z,4.43
2023-05-02T06:36:54.741Z,4.65
2023-05-02T06:39:21.443Z,4.63
2023-05-02T06:41:48.832Z,3.95
2023-05-02T06:44:15.763Z,4.80
2023-05-02T06:46:42.838Z,4.20
2023-05-02T06:49:09.524Z,5.10
2023-05-02T06:51:36.197Z,4.70
2023-05-02T06:54:02.966Z,5.13
2023-05-02T06:56:29.799Z,5.40
2023-05-02T06:58:56.668Z,5.55
2023-05-02T07:01:23.539Z,5.07
2023-05-02T07:03:50.442Z,5.10
2023-05-02T07:06:17.328Z,4.63
2023-05-02T07:08:44.104Z,5.13
2023-05-02T07:11:10.883Z,4.75
2023-05-02T07:13:37.625Z,4.95
2023-05-02T07:16:04.780Z,4.10
2023-05-02T07:18:31.550Z,5.35
2023-05-02T07:20:58.223Z,6.07
2023-05-02T07:23:25.359Z,6.95
2023-05-02T07:25:52.456Z,8.10
2023-05-02T07:28:19.239Z,11.13
2023-05-02T07:30:46.233Z,5.20
2023-05-02T07:33:13.046Z,7.23
2023-05-02T07:35:39.853Z,4.78
2023-05-02T07:38:06.646Z,8.27
2023-05-02T07:40:33.469Z,6.78
2023-05-02T07:43:01.266Z,6.38
2023-05-02T07:45:28.211Z,5.63
2023-05-02T07:47:55.141Z,4.40
2023-05-02T07:50:22.700Z,4.47
2023-05-02T07:52:49.487Z,5.25
2023-05-02T07:55:16.310Z,5.32
2023-05-02T07:57:43.200Z,5.27
2023-05-02T08:00:10.453Z,4.70
2023-05-02T08:02:37.408Z,4.95
2023-05-02T08:05:04.596Z,4.60
2023-05-02T08:07:32.565Z,5.25
2023-05-02T08:09:59.357Z,3.80
2023-05-02T08:12:26.276Z,4.85
2023-05-02T08:14:53.316Z,4.65
2023-05-02T08:17:20.051Z,4.00
2023-05-02T08:19:46.780Z,4.25
2023-05-02T08:22:13.496Z,4.67
2023-05-02T08:24:40.277Z,4.63
2023-05-02T08:27:07.008Z,5.15
2023-05-02T08:29:33.778Z,6.80
2023-05-02T08:32:00.514Z,4.22
2023-05-02T08:34:27.348Z,4.53
2023-05-02T08:36:54.715Z,5.18
2023-05-02T08:39:22.924Z,4.95
2023-05-02T08:41:50.330Z,4.93
2023-05-02T08:44:17.623Z,5.30
2023-05-02T08:46:45.648Z,4.70
2023-05-02T08:49:15.800Z,5.82
2023-05-02T08:51:45.362Z,5.43
2023-05-02T08:54:17.174Z,5.00
2023-05-02T08:56:44.004Z,5.03
2023-05-02T08:59:10.813Z,4.87
2023-05-02T09:01:39.553Z,5.75
2023-05-02T09:04:06.560Z,5.75
2023-05-02T09:06:33.436Z,5.30
2023-05-02T09:09:01.070Z,4.30
2023-05-02T09:11:28.020Z,2.30
2023-05-02T09:13:54.934Z,2.28
2023-05-02T09:16:27.169Z,2.10
2023-05-02T09:18:58.932Z,2.45
2023-05-02T09:21:40.357Z,2.67
2023-05-02T09:24:22.789Z,2.57
2023-05-02T09:27:01.078Z,2.47
2023-05-02T09:29:30.831Z,2.65
2023-05-02T09:32:01.049Z,2.65
2023-05-02T09:34:27.872Z,2.38
2023-05-02T09:36:55.115Z,2.13
2023-05-02T09:39:26.945Z,2.92
2023-05-02T09:41:54.209Z,2.72
2023-05-02T09:44:23.762Z,2.17
2023-05-02T09:46:52.937Z,2.20
2023-05-02T09:49:20.650Z,2.47
2023-05-02T09:52:07.848Z,2.67
2023-05-02T09:54:45.236Z,2.83
2023-05-02T09:57:12.132Z,2.38
2023-05-02T09:59:42.503Z,2.08
2023-05-02T10:02:11.468Z,2.03
2023-05-02T10:04:39.525Z,2.42
2023-05-02T10:07:10.618Z,2.42
2023-05-02T10:09:43.381Z,2.17
2023-05-02T10:12:10.228Z,2.42
2023-05-02T10:14:41.761Z,2.20
2023-05-02T10:17:14.309Z,2.55
2023-05-02T10:20:06.986Z,2.15
2023-05-02T10:22:35.340Z,1.90
2023-05-02T10:25:03.726Z,2.60
2023-05-02T10:27:32.287Z,2.63
2023-05-02T10:30:00.738Z,2.47
2023-05-02T10:32:29.775Z,2.35
2023-05-02T10:35:05.283Z,1.95
2023-05-02T10:37:34.650Z,2.50
2023-05-02T10:40:01.853Z,2.30
2023-05-02T10:42:30.076Z,2.30
2023-05-02T10:44:57.443Z,3.05
2023-05-02T10:47:31.438Z,1.52
2023-05-02T10:50:03.189Z,2.03
2023-05-02T10:52:38.371Z,2.20
2023-05-02T10:55:22.261Z,2.30
2023-05-02T10:58:01.088Z,2.00
2023-05-02T11:00:33.807Z,2.55
2023-05-02T11:03:01.959Z,1.98
2023-05-02T11:05:29.254Z,2.10
2023-05-02T11:08:20.142Z,2.40
2023-05-02T11:10:48.012Z,2.42
2023-05-02T11:13:14.879Z,1.98
2023-05-02T11:15:41.519Z,1.98
2023-05-02T11:18:09.235Z,2.40
2023-05-02T11:20:37.468Z,2.47
2023-05-02T11:23:16.832Z,2.22
2023-05-02T11:25:45.980Z,2.03
2023-05-02T11:28:34.664Z,2.85
2023-05-02T11:31:01.942Z,2.60
2023-05-02T11:33:29.561Z,2.88
2023-05-02T11:35:59.305Z,2.70
2023-05-02T11:38:34.972Z,2.72
2023-05-02T11:41:03.056Z,2.47
2023-05-02T11:43:31.968Z,2.63
2023-05-02T11:46:00.837Z,2.55
2023-05-02T11:48:28.113Z,3.30
2023-05-02T11:51:03.567Z,3.10
2023-05-02T11:53:31.517Z,3.30
2023-05-02T11:56:04.848Z,3.30
2023-05-02T11:58:33.542Z,3.13
2023-05-02T12:01:17.363Z,3.47
2023-05-02T12:03:44.418Z,3.25
2023-05-02T12:06:12.863Z,3.10
2023-05-02T12:08:41.024Z,3.20
2023-05-02T12:11:08.046Z,2.65
2023-05-02T12:13:40.048Z,2.58
2023-05-02T12:16:07.326Z,3.13
2023-05-02T12:18:34.221Z,3.55
2023-05-02T12:21:01.159Z,3.03
2023-05-02T12:23:28.028Z,3.20
2023-05-02T12:25:54.830Z,3.42
2023-05-02T12:28:23.950Z,3.08
2023-05-02T12:30:51.565Z,3.53
2023-05-02T12:33:19.095Z,3.30
2023-05-02T12:35:49.250Z,2.92
2023-05-02T12:38:18.276Z,3.25
2023-05-02T12:40:53.845Z,2.95
2023-05-02T12:43:22.295Z,3.40
2023-05-02T12:45:49.985Z,3.60
2023-05-02T12:48:23.074Z,3.72
2023-05-02T12:50:50.290Z,3.20
2023-05-02T12:53:17.289Z,3.22
2023-05-02T12:55:44.741Z,2.85
2023-05-02T12:58:15.458Z,3.10
2023-05-02T13:00:44.722Z,3.13
2023-05-02T13:03:12.520Z,3.75
2023-05-02T13:05:39.438Z,3.55
2023-05-02T13:08:06.364Z,2.85
2023-05-02T13:10:33.299Z,3.17
2023-05-02T13:13:00.656Z,3.60
2023-05-02T13:15:27.445Z,3.20
2023-05-02T13:17:54.320Z,3.50
2023-05-02T13:20:21.459Z,3.20
2023-05-02T13:22:48.253Z,3.30
2023-05-02T13:25:15.093Z,3.38
2023-05-02T13:27:41.781Z,3.10
2023-05-02T13:30:09.965Z,3.15
2023-05-02T13:32:37.100Z,3.33
2023-05-02T13:35:05.202Z,3.10
2023-05-02T13:37:31.977Z,3.28
2023-05-02T13:39:58.942Z,3.00
2023-05-02T13:42:26.282Z,2.70
2023-05-02T13:44:53.222Z,2.72
2023-05-02T13:47:19.894Z,3.17
2023-05-02T13:49:46.623Z,2.97
2023-05-02T13:52:13.306Z,2.85
2023-05-02T13:54:40.249Z,2.67
2023-05-02T13:57:07.317Z,2.72
2023-05-02T13:59:34.051Z,2.77
2023-05-02T14:02:00.986Z,3.08
2023-05-02T14:04:27.953Z,2.60
2023-05-02T14:06:56.018Z,3.08
2023-05-02T14:09:22.837Z,3.15
2023-05-02T14:11:49.747Z,2.93
2023-05-02T14:14:16.601Z,2.88
2023-05-02T14:16:43.477Z,2.83
2023-05-02T14:19:10.559Z,2.78
2023-05-02T14:21:38.803Z,2.88
2023-05-02T14:24:06.608Z,2.70
2023-05-02T14:26:33.433Z,2.92
2023-05-02T14:29:00.789Z,3.00
2023-05-02T14:31:27.862Z,2.92
2023-05-02T14:33:54.729Z,2.72
2023-05-02T14:36:21.544Z,2.53
2023-05-02T14:38:48.324Z,3.00
2023-05-02T14:41:15.277Z,2.50
2023-05-02T14:43:42.050Z,2.42
2023-05-02T14:46:08.775Z,2.55
2023-05-02T14:48:35.516Z,2.23
2023-05-02T14:51:06.673Z,2.17
2023-05-02T14:53:33.513Z,2.97
2023-05-02T14:56:00.402Z,2.72
2023-05-02T14:58:27.229Z,2.80
2023-05-02T15:00:54.013Z,2.07
2023-05-02T15:03:21.068Z,2.80
2023-05-02T15:05:48.074Z,2.20
2023-05-02T15:08:14.850Z,2.20
2023-05-02T15:10:41.694Z,2.13
2023-05-02T15:13:08.992Z,2.20
2023-05-02T15:15:36.189Z,2.20
2023-05-02T15:18:03.190Z,2.30
2023-05-02T15:20:30.009Z,2.10
2023-05-02T15:22:58.812Z,2.35
2023-05-02T15:25:26.037Z,2.00
2023-05-02T15:27:52.926Z,2.40
2023-05-02T15:30:20.654Z,2.70
2023-05-02T15:32:49.676Z,2.30
2023-05-02T15:35:16.504Z,2.85
2023-05-02T15:37:43.225Z,2.33
2023-05-02T15:40:10.832Z,2.20
2023-05-02T15:42:38.420Z,1.98
2023-05-02T15:45:05.845Z,2.10
2023-05-02T15:47:32.843Z,3.40
2023-05-02T15:50:00.293Z,2.33
2023-05-02T15:52:27.415Z,2.85
2023-05-02T15:54:56.148Z,2.92
2023-05-02T15:57:23.203Z,2.92
2023-05-02T15:59:50.182Z,2.95
2023-05-02T16:02:16.986Z,3.07
2023-05-02T16:04:43.760Z,2.75
2023-05-02T16:07:12.230Z,2.70
2023-05-02T16:09:39.839Z,2.88
2023-05-02T16:12:07.339Z,2.28
2023-05-02T16:14:34.959Z,3.47
2023-05-02T16:17:01.973Z,2.30
2023-05-02T16:19:28.713Z,3.05
2023-05-02T16:21:55.475Z,2.70
2023-05-02T16:24:22.176Z,2.47
2023-05-02T16:26:48.913Z,2.87
2023-05-02T16:29:15.765Z,2.33
2023-05-02T16:31:44.467Z,2.30
2023-05-02T16:34:11.591Z,2.20
2023-05-02T16:36:38.388Z,2.10
2023-05-02T16:39:05.181Z,2.40
2023-05-02T16:41:32.000Z,1.75
2023-05-02T16:43:58.796Z,2.50
2023-05-02T16:46:25.931Z,2.67
2023-05-02T16:48:52.679Z,2.67
2023-05-02T16:51:19.822Z,2.87
2023-05-02T16:53:46.573Z,2.53
2023-05-02T16:56:13.321Z,2.40
2023-05-02T16:58:40.144Z,2.47
2023-05-02T17:01:07.238Z,2.15
2023-05-02T17:03:34.320Z,2.90
2023-05-02T17:06:02.071Z,2.95
2023-05-02T17:08:29.290Z,2.20
2023-05-02T17:10:56.356Z,2.40
2023-05-02T17:13:23.162Z,3.22
2023-05-02T17:15:50.148Z,2.10
2023-05-02T17:18:16.955Z,2.40
2023-05-02T17:20:45.995Z,2.78
2023-05-02T17:23:12.932Z,2.65
2023-05-02T17:25:39.733Z,1.83
2023-05-02T17:28:06.744Z,2.33
2023-05-02T17:30:35.176Z,1.88
2023-05-02T17:33:02.142Z,1.58
2023-05-02T17:35:29.010Z,2.42
2023-05-02T17:37:55.847Z,2.20
2023-05-02T17:40:22.743Z,1.93
2023-05-02T17:42:49.870Z,2.67
2023-05-02T17:45:18.151Z,2.50
2023-05-02T17:47:45.007Z,2.20
2023-05-02T17:50:11.730Z,1.98
2023-05-02T17:52:38.999Z,2.40
2023-05-02T17:55:06.906Z,2.10
2023-05-02T17:57:33.704Z,2.55
2023-05-02T18:00:01.155Z,2.38
2023-05-02T18:02:28.474Z,1.65
2023-05-02T18:04:55.481Z,1.50
2023-05-02T18:07:25.196Z,2.20
2023-05-02T18:09:52.131Z,1.80
2023-05-02T18:12:19.445Z,2.05
2023-05-02T18:14:46.272Z,2.17
2023-05-02T18:17:12.970Z,1.70
2023-05-02T18:19:39.826Z,1.90
2023-05-02T18:22:07.374Z,2.95
2023-05-02T18:24:34.191Z,2.20
2023-05-02T18:27:01.037Z,2.40
2023-05-02T18:29:27.874Z,1.67
2023-05-02T18:31:55.005Z,2.10
2023-05-02T18:34:22.064Z,2.40
2023-05-02T18:36:49.217Z,2.08
2023-05-02T18:39:16.422Z,1.60
2023-05-02T18:41:43.509Z,1.70
2023-05-02T18:44:11.828Z,4.10
2023-05-02T18:46:39.044Z,1.85
2023-05-02T18:49:09.508Z,2.08
2023-05-02T18:51:36.556Z,2.17
2023-05-02T18:54:03.684Z,1.90
2023-05-02T18:56:30.742Z,1.85
2023-05-02T18:58:57.904Z,2.17
2023-05-02T19:01:25.013Z,2.45
2023-05-02T19:03:55.093Z,2.10
2023-05-02T19:06:22.215Z,2.07
2023-05-02T19:08:50.501Z,2.58
2023-05-02T19:11:17.692Z,1.67
2023-05-02T19:13:45.736Z,2.15
2023-05-02T19:16:14.484Z,1.70
2023-05-02T19:18:41.509Z,1.87
2023-05-02T19:21:14.416Z,2.10
2023-05-02T19:23:42.116Z,2.00
2023-05-02T19:26:17.548Z,1.58
2023-05-02T19:28:45.080Z,1.90
2023-05-02T19:31:13.930Z,2.23
2023-05-02T19:33:41.840Z,2.30
2023-05-02T19:36:08.861Z,1.92
2023-05-02T19:38:35.867Z,1.83
2023-05-02T19:41:03.391Z,2.50
2023-05-02T19:43:30.439Z,1.57
2023-05-02T19:45:59.045Z,2.42
2023-05-02T19:48:26.257Z,2.95
2023-05-02T19:50:54.189Z,1.60
2023-05-02T19:53:24.059Z,2.45
2023-05-02T19:55:51.032Z,2.03
2023-05-02T19:58:18.547Z,2.60
2023-05-02T20:00:46.244Z,1.75
2023-05-02T20:03:13.378Z,2.13
2023-05-02T20:05:40.224Z,2.28
2023-05-02T20:08:07.356Z,2.70
2023-05-02T20:10:35.376Z,1.85
2023-05-02T20:13:02.471Z,2.35
2023-05-02T20:15:30.582Z,2.03
2023-05-02T20:17:58.500Z,2.50
2023-05-02T20:20:25.615Z,1.83
2023-05-02T20:22:54.735Z,1.98
2023-05-02T20:25:23.083Z,1.88
2023-05-02T20:27:53.690Z,1.10
2023-05-02T20:30:20.904Z,1.75
2023-05-02T20:32:47.716Z,2.07
2023-05-02T20:35:14.652Z,1.67
2023-05-02T20:37:41.537Z,2.35
2023-05-02T20:40:10.263Z,2.15
2023-05-02T20:42:42.716Z,2.05
2023-05-02T20:45:12.734Z,2.33
2023-05-02T20:47:39.745Z,1.67
2023-05-02T20:50:09.452Z,2.33
2023-05-02T20:52:40.606Z,2.63
2023-05-02T20:55:08.045Z,2.90
2023-05-02T20:57:35.085Z,1.77
2023-05-02T21:00:02.905Z,2.47
2023-05-02T21:02:30.732Z,1.80
2023-05-02T21:04:57.631Z,1.60
2023-05-02T21:07:24.456Z,1.48
2023-05-02T21:09:51.189Z,2.50
2023-05-02T21:12:18.213Z,3.03
2023-05-02T21:14:44.908Z,2.85
2023-05-02T21:17:11.659Z,2.33
2023-05-02T21:19:38.430Z,2.53
2023-05-02T21:22:05.328Z,2.40
2023-05-02T21:24:32.140Z,2.00
2023-05-02T21:26:58.933Z,1.52
2023-05-02T21:29:25.685Z,1.80
2023-05-02T21:31:54.581Z,1.60
2023-05-02T21:34:21.540Z,2.77
2023-05-02T21:36:48.238Z,1.90
2023-05-02T21:39:16.399Z,2.13
2023-05-02T21:41:43.131Z,1.83
2023-05-02T21:44:11.365Z,2.63
2023-05-02T21:46:38.127Z,2.47
2023-05-02T21:49:04.885Z,2.30
2023-05-02T21:51:31.781Z,2.90
2023-05-02T21:53:58.504Z,3.10
2023-05-02T21:56:25.333Z,3.15
2023-05-02T21:58:52.051Z,2.13
2023-05-02T22:01:19.146Z,2.00
2023-05-02T22:03:46.438Z,1.58
2023-05-02T22:06:13.184Z,1.77
2023-05-02T22:08:39.970Z,2.45
2023-05-02T22:11:09.346Z,1.97
2023-05-02T22:13:36.803Z,1.88
2023-05-02T22:16:03.830Z,1.70
2023-05-02T22:18:30.594Z,2.38
2023-05-02T22:20:58.714Z,1.90
2023-05-02T22:23:25.526Z,2.00
2023-05-02T22:25:52.360Z,1.50
2023-05-02T22:28:19.198Z,1.90
2023-05-02T22:30:46.186Z,1.88
2023-05-02T22:33:14.235Z,1.90
2023-05-02T22:35:41.193Z,1.30
2023-05-02T22:38:11.062Z,1.92
2023-05-02T22:40:37.752Z,1.95
2023-05-02T22:43:04.595Z,1.60
2023-05-02T22:45:31.324Z,1.95
2023-05-02T22:47:58.184Z,2.33
2023-05-02T22:50:26.399Z,2.40
2023-05-02T22:52:57.029Z,2.50
2023-05-02T22:55:24.294Z,2.33
2023-05-02T22:57:51.189Z,1.70
2023-05-02T23:00:17.908Z,2.30
2023-05-02T23:02:45.231Z,1.60
2023-05-02T23:05:12.133Z,1.80
2023-05-02T23:07:39.058Z,2.00
2023-05-02T23:10:06.693Z,2.38
2023-05-02T23:12:33.445Z,1.40
2023-05-02T23:15:00.409Z,2.10
2023-05-02T23:17:27.175Z,2.08
2023-05-02T23:19:53.968Z,2.15
2023-05-02T23:22:20.739Z,2.67
2023-05-02T23:24:48.013Z,2.93
2023-05-02T23:27:15.175Z,3.17
2023-05-02T23:29:41.875Z,5.03
2023-05-02T23:32:08.702Z,4.10
2023-05-02T23:34:38.877Z,2.97
2023-05-02T23:37:07.011Z,3.10
2023-05-02T23:39:34.052Z,2.20
2023-05-02T23:42:03.840Z,2.50
2023-05-02T23:44:31.291Z,2.60
2023-05-02T23:47:00.874Z,2.42
2023-05-02T23:49:27.895Z,2.03
2023-05-02T23:51:54.545Z,2.92
2023-05-02T23:54:21.421Z,2.80
2023-05-02T23:56:48.162Z,3.05
2023-05-02T23:59:15.262Z,1.75
